Time;durP1;ratioP1;P1;durP2;ratioP2;P2;SDS_P1;SDS_P2;PMS_P1;PMS_P2;Temp;Humidity;BMP_temperature;BMP_pressure;BME280_temperature;BME280_humidity;BME280_pressure;Samples;Min_cycle;Max_cycle;Signal;HPM_P1;HPM_P2
2021/03/02 00:01:50;;;;;;;33.83;3.20;;;0.00;99.90;;;;;;5054045;28;20021;-74
2021/03/02 00:04:16;;;;;;;177.77;8.55;;;0.00;99.90;;;;;;5072537;28;20029;-74
2021/03/02 00:06:42;;;;;;;95.03;6.15;;;0.00;99.90;;;;;;5073998;28;20066;-74
2021/03/02 00:09:07;;;;;;;18.33;3.78;;;0.00;99.90;;;;;;5074002;28;20037;-74
2021/03/02 00:11:36;;;;;;;171.20;7.88;;;0.00;99.90;;;;;;5073583;28;20096;-74
2021/03/02 00:14:01;;;;;;;13.30;3.63;;;0.00;99.90;;;;;;5057437;28;20397;-75
2021/03/02 00:16:27;;;;;;;5.35;3.10;;;0.00;99.90;;;;;;5053747;28;20099;-74
2021/03/02 00:19:09;;;;;;;73.55;5.00;;;0.00;99.90;;;;;;5054099;28;20075;-75
2021/03/02 00:21:42;;;;;;;44.95;4.97;;;0.00;99.90;;;;;;5053689;28;20393;-74
2021/03/02 00:24:10;;;;;;;71.55;5.68;;;0.00;99.90;;;;;;5065346;28;20028;-75
2021/03/02 00:26:41;;;;;;;87.55;5.82;;;0.00;99.90;;;;;;5073527;28;20059;-74
2021/03/02 00:29:09;;;;;;;96.97;6.20;;;0.00;99.90;;;;;;5072347;28;20053;-75
2021/03/02 00:31:35;;;;;;;140.35;11.65;;;-0.10;99.90;;;;;;5073436;28;20070;-75
2021/03/02 00:34:01;;;;;;;4.65;3.33;;;-0.10;99.90;;;;;;5055287;28;20420;-75
2021/03/02 00:36:27;;;;;;;30.95;4.45;;;-0.10;99.90;;;;;;5053410;28;20074;-75
2021/03/02 00:38:52;;;;;;;92.25;6.53;;;-0.10;99.90;;;;;;5052156;28;20029;-75
2021/03/02 00:41:18;;;;;;;152.70;7.93;;;-0.10;99.90;;;;;;5053207;28;20036;-74
2021/03/02 00:43:44;;;;;;;198.25;10.68;;;-0.20;99.90;;;;;;5053534;28;20037;-75
2021/03/02 00:46:10;;;;;;;13.13;4.10;;;-0.20;99.90;;;;;;5053248;28;20071;-74
2021/03/02 00:48:36;;;;;;;31.80;4.30;;;-0.20;99.90;;;;;;5053501;28;20033;-74
2021/03/02 00:51:02;;;;;;;55.13;4.75;;;-0.20;99.90;;;;;;5052977;28;20096;-75
2021/03/02 00:53:28;;;;;;;110.40;7.18;;;-0.10;99.90;;;;;;5053541;28;20036;-75
2021/03/02 00:55:54;;;;;;;56.00;4.70;;;-0.10;99.90;;;;;;5051175;28;20025;-75
2021/03/02 00:58:19;;;;;;;105.72;8.07;;;-0.20;99.90;;;;;;5053091;28;20021;-75
2021/03/02 01:00:45;;;;;;;38.38;5.18;;;-0.30;99.90;;;;;;5053022;28;20048;-75
2021/03/02 01:03:11;;;;;;;135.43;8.55;;;-0.30;99.90;;;;;;5063012;28;20392;-75
2021/03/02 01:05:36;;;;;;;201.48;10.15;;;-0.20;99.90;;;;;;5072131;28;20501;-75
2021/03/02 01:08:03;;;;;;;153.43;10.10;;;-0.30;99.90;;;;;;5072914;28;20031;-75
2021/03/02 01:10:29;;;;;;;221.32;9.65;;;-0.30;99.90;;;;;;5072728;28;20036;-75
2021/03/02 01:12:54;;;;;;;262.35;14.38;;;-0.30;99.90;;;;;;5067665;28;20024;-75
2021/03/02 01:15:20;;;;;;;104.43;8.35;;;-0.40;99.90;;;;;;5052161;28;20101;-75
2021/03/02 01:17:46;;;;;;;87.57;7.50;;;-0.40;99.90;;;;;;5052759;28;20519;-75
2021/03/02 01:20:11;;;;;;;101.20;7.18;;;-0.30;99.90;;;;;;5052538;28;20039;-75
2021/03/02 01:22:37;;;;;;;118.72;7.95;;;-0.30;99.90;;;;;;5051231;28;20549;-75
2021/03/02 01:25:11;;;;;;;91.32;8.60;;;-0.20;99.90;;;;;;5070959;28;20025;-75
2021/03/02 01:27:38;;;;;;;270.60;11.15;;;-0.20;99.90;;;;;;5072282;28;20029;-75
2021/03/02 01:30:09;;;;;;;122.00;7.88;;;-0.10;99.90;;;;;;5071046;28;20027;-75
2021/03/02 01:32:34;;;;;;;303.95;13.23;;;-0.10;99.90;;;;;;5065289;28;20029;-75
2021/03/02 01:35:00;;;;;;;285.50;13.20;;;-0.10;99.90;;;;;;5051722;28;20036;-75
2021/03/02 01:37:26;;;;;;;338.98;15.00;;;-0.20;99.90;;;;;;5051056;28;20490;-75
2021/03/02 01:39:51;;;;;;;244.15;12.35;;;-0.20;99.90;;;;;;5052401;28;20061;-75
2021/03/02 01:42:17;;;;;;;158.63;8.63;;;-0.30;99.90;;;;;;5052000;28;20040;-75
2021/03/02 01:44:42;;;;;;;175.52;11.82;;;-0.20;99.90;;;;;;5071395;28;20064;-75
2021/03/02 01:47:08;;;;;;;121.35;8.07;;;-0.20;99.90;;;;;;5070032;28;20039;-75
2021/03/02 01:49:34;;;;;;;140.43;7.53;;;-0.20;99.90;;;;;;5052034;28;20079;-75
2021/03/02 01:52:00;;;;;;;153.75;8.82;;;-0.20;99.90;;;;;;5050697;28;20032;-75
2021/03/02 01:54:28;;;;;;;157.98;9.93;;;-0.20;99.90;;;;;;5051680;28;20029;-75
2021/03/02 01:56:53;;;;;;;300.83;16.38;;;-0.20;99.90;;;;;;5051869;28;20024;-75
2021/03/02 01:59:20;;;;;;;214.65;11.50;;;-0.20;99.90;;;;;;5051149;28;20454;-75
2021/03/02 02:01:45;;;;;;;207.45;12.32;;;-0.10;99.90;;;;;;5051767;28;20095;-75
2021/03/02 02:04:26;;;;;;;197.50;12.23;;;-0.10;99.90;;;;;;5081682;28;20029;-75
2021/03/02 02:06:58;;;;;;;6.82;4.40;;;-0.10;99.90;;;;;;5050398;28;20021;-75
2021/03/02 02:09:27;;;;;;;160.82;10.32;;;0.00;99.90;;;;;;5051955;28;20067;-75
2021/03/02 02:12:08;;;;;;;53.58;6.80;;;0.00;99.90;;;;;;5051723;28;20397;-75
2021/03/02 02:14:58;;;;;;;142.90;13.77;;;0.00;99.90;;;;;;5050725;28;20103;-75
2021/03/02 02:17:50;;;;;;;34.13;6.85;;;0.00;99.90;;;;;;5051764;28;20032;-75
2021/03/02 02:20:26;;;;;;;205.68;17.30;;;0.00;99.90;;;;;;5051468;28;20166;-75
2021/03/02 02:23:21;;;;;;;137.82;13.75;;;0.10;99.90;;;;;;5053420;28;20029;-75
2021/03/02 02:26:02;;;;;;;71.28;9.02;;;0.00;99.90;;;;;;5063957;28;20049;-73
2021/03/02 02:28:29;;;;;;;161.38;9.35;;;0.00;99.90;;;;;;5050102;28;20029;-75
2021/03/02 02:30:57;;;;;;;90.78;10.23;;;0.00;99.90;;;;;;5051361;28;20023;-75
2021/03/02 02:33:30;;;;;;;88.60;8.40;;;0.00;99.90;;;;;;5051805;28;20033;-75
2021/03/02 02:35:58;;;;;;;78.32;8.82;;;0.10;99.90;;;;;;5050478;28;20074;-75
2021/03/02 02:38:24;;;;;;;104.43;11.48;;;0.10;99.90;;;;;;5051030;28;20485;-74
2021/03/02 02:40:50;;;;;;;177.13;13.45;;;0.10;99.90;;;;;;5051358;28;20048;-75
2021/03/02 02:43:17;;;;;;;114.28;9.15;;;0.00;99.90;;;;;;5059003;28;20043;-75
2021/03/02 02:45:45;;;;;;;10.25;6.07;;;0.00;99.90;;;;;;5070622;28;20393;-75
2021/03/02 02:48:11;;;;;;;134.80;12.55;;;0.00;99.90;;;;;;5059624;28;20071;-75
2021/03/02 02:50:37;;;;;;;89.30;9.40;;;0.00;99.90;;;;;;5050977;28;20102;-75
2021/03/02 02:53:04;;;;;;;58.05;9.10;;;0.00;99.90;;;;;;5065134;28;20024;-75
2021/03/02 02:55:36;;;;;;;15.65;5.57;;;0.00;99.90;;;;;;5070638;28;20016;-75
2021/03/02 02:58:06;;;;;;;76.03;10.02;;;0.00;99.90;;;;;;5070966;28;20035;-75
2021/03/02 03:00:34;;;;;;;131.70;10.70;;;0.10;99.90;;;;;;5071105;28;20020;-75
2021/03/02 03:03:04;;;;;;;92.97;10.45;;;0.10;99.90;;;;;;5057990;28;20029;-75
2021/03/02 03:05:30;;;;;;;16.92;6.90;;;0.10;99.90;;;;;;5050632;28;20060;-75
2021/03/02 03:08:24;;;;;;;36.03;7.28;;;0.10;99.90;;;;;;5051286;28;20480;-75
2021/03/02 03:10:51;;;;;;;29.90;7.38;;;0.10;99.90;;;;;;5050741;28;20082;-75
2021/03/02 03:13:24;;;;;;;94.47;11.40;;;0.00;99.90;;;;;;5050936;28;20388;-75
2021/03/02 03:15:53;;;;;;;17.95;9.18;;;0.00;99.90;;;;;;5050699;28;20027;-75
2021/03/02 03:18:22;;;;;;;61.13;10.48;;;0.00;99.90;;;;;;5051261;28;20029;-75
2021/03/02 03:20:49;;;;;;;165.95;15.10;;;0.00;99.90;;;;;;5049441;28;20043;-75
2021/03/02 03:23:15;;;;;;;70.05;10.93;;;0.10;99.90;;;;;;5050865;28;20100;-75
2021/03/02 03:25:41;;;;;;;76.88;11.88;;;0.00;99.90;;;;;;5050596;28;20021;-74
2021/03/02 03:28:08;;;;;;;21.15;9.38;;;0.00;99.90;;;;;;5050741;28;20029;-75
2021/03/02 03:30:34;;;;;;;132.85;11.15;;;0.00;99.90;;;;;;5050850;28;20021;-75
2021/03/02 03:33:04;;;;;;;38.75;12.00;;;-0.10;99.90;;;;;;5050832;28;20017;-75
2021/03/02 03:35:30;;;;;;;13.77;9.48;;;0.00;99.90;;;;;;5048932;28;20481;-75
2021/03/02 03:37:56;;;;;;;30.65;10.60;;;-0.10;99.90;;;;;;5050084;28;20500;-75
2021/03/02 03:40:22;;;;;;;152.07;13.93;;;-0.10;99.90;;;;;;5049600;28;20024;-75
2021/03/02 03:42:48;;;;;;;150.95;13.55;;;-0.20;99.90;;;;;;5049977;28;20112;-75
2021/03/02 03:45:14;;;;;;;231.60;15.75;;;-0.20;99.90;;;;;;5050093;28;20095;-75
2021/03/02 03:47:40;;;;;;;154.02;16.15;;;-0.20;99.90;;;;;;5056566;28;20063;-75
2021/03/02 03:50:07;;;;;;;164.23;13.75;;;-0.40;99.90;;;;;;5070874;28;20392;-75
2021/03/02 03:52:36;;;;;;;209.13;16.15;;;-0.40;99.90;;;;;;5072916;28;20036;-75
2021/03/02 03:55:03;;;;;;;22.50;9.57;;;-0.40;99.90;;;;;;5073262;28;20384;-75
2021/03/02 03:57:30;;;;;;;23.77;10.13;;;-0.40;99.90;;;;;;5074321;28;20028;-75
2021/03/02 03:59:57;;;;;;;122.93;15.40;;;-0.40;99.90;;;;;;5074183;28;20033;-75
2021/03/02 04:02:24;;;;;;;150.43;14.85;;;-0.30;99.90;;;;;;5069043;28;20021;-75
2021/03/02 04:04:50;;;;;;;96.65;13.45;;;-0.30;99.90;;;;;;5053280;28;20032;-75
2021/03/02 04:07:17;;;;;;;20.17;11.07;;;-0.40;99.90;;;;;;5054113;28;20032;-75
2021/03/02 04:09:44;;;;;;;259.60;22.10;;;-0.30;99.90;;;;;;5054097;28;20512;-75
2021/03/02 04:12:11;;;;;;;127.72;15.73;;;-0.30;99.90;;;;;;5052706;28;20534;-75
2021/03/02 04:14:36;;;;;;;189.00;16.48;;;-0.30;99.90;;;;;;5068916;28;20060;-75
2021/03/02 04:17:03;;;;;;;179.57;17.15;;;-0.40;99.90;;;;;;5053968;28;20033;-75
2021/03/02 04:19:30;;;;;;;121.25;15.00;;;-0.40;99.90;;;;;;5053806;28;20036;-75
2021/03/02 04:21:55;;;;;;;31.85;11.77;;;-0.50;99.90;;;;;;5053602;28;20481;-75
2021/03/02 04:24:21;;;;;;;45.05;12.40;;;-0.50;99.90;;;;;;5052429;28;20029;-75
2021/03/02 04:26:47;;;;;;;49.90;13.48;;;-0.40;99.90;;;;;;5053768;28;20017;-75
2021/03/02 04:29:13;;;;;;;17.30;10.82;;;-0.40;99.90;;;;;;5053573;28;20029;-75
2021/03/02 04:31:38;;;;;;;46.35;11.63;;;-0.30;99.90;;;;;;5053632;28;20029;-75
2021/03/02 04:34:04;;;;;;;25.90;11.88;;;-0.20;99.90;;;;;;5070070;28;20439;-75
2021/03/02 04:36:30;;;;;;;29.75;11.30;;;-0.20;99.90;;;;;;5073571;28;20032;-75
2021/03/02 04:38:55;;;;;;;35.97;12.43;;;-0.10;99.90;;;;;;5073488;28;20031;-75
2021/03/02 04:41:21;;;;;;;124.88;16.63;;;-0.10;99.90;;;;;;5073309;28;20077;-75
2021/03/02 04:43:47;;;;;;;16.92;10.60;;;-0.10;99.90;;;;;;5060229;28;20108;-75
2021/03/02 04:46:12;;;;;;;39.92;13.18;;;-0.10;99.90;;;;;;5053476;28;20026;-75
2021/03/02 04:48:38;;;;;;;15.32;9.60;;;-0.10;99.90;;;;;;5053484;28;20025;-75
2021/03/02 04:51:04;;;;;;;53.40;11.80;;;-0.20;99.90;;;;;;5053183;28;20028;-75
2021/03/02 04:53:29;;;;;;;22.50;10.43;;;-0.20;99.90;;;;;;5067631;28;20603;-75
2021/03/02 04:55:55;;;;;;;22.63;10.88;;;-0.10;99.90;;;;;;5072523;28;20059;-75
2021/03/02 04:58:21;;;;;;;36.17;12.10;;;-0.10;99.90;;;;;;5073082;28;20099;-75
2021/03/02 05:00:46;;;;;;;25.00;10.80;;;-0.20;99.90;;;;;;5071429;28;20031;-75
2021/03/02 05:03:12;;;;;;;136.10;14.98;;;-0.20;99.90;;;;;;5061057;28;20050;-75
2021/03/02 05:05:37;;;;;;;33.28;10.68;;;-0.20;99.90;;;;;;5052380;28;20051;-75
2021/03/02 05:08:03;;;;;;;95.07;14.05;;;-0.30;99.90;;;;;;5068338;28;20083;-75
2021/03/02 05:10:29;;;;;;;77.13;11.63;;;-0.30;99.90;;;;;;5052840;28;20115;-75
2021/03/02 05:12:54;;;;;;;51.92;10.75;;;-0.30;99.90;;;;;;5055250;28;20104;-75
2021/03/02 05:15:20;;;;;;;25.55;9.45;;;-0.40;99.90;;;;;;5052050;28;20047;-75
2021/03/02 05:17:45;;;;;;;61.35;10.30;;;-0.50;99.90;;;;;;5053098;28;20040;-75
2021/03/02 05:20:11;;;;;;;28.02;10.85;;;-0.50;99.90;;;;;;5068124;28;20389;-75
2021/03/02 05:22:37;;;;;;;14.55;8.52;;;-0.50;99.90;;;;;;5052996;28;20064;-75
2021/03/02 05:25:04;;;;;;;43.05;16.20;;;-0.50;99.90;;;;;;5052001;28;20060;-75
2021/03/02 05:27:30;;;;;;;22.50;10.23;;;-0.50;99.90;;;;;;5067882;28;20035;-75
2021/03/02 05:29:55;;;;;;;14.98;10.18;;;-0.40;99.90;;;;;;5052571;28;20025;-75
2021/03/02 05:32:21;;;;;;;79.65;13.63;;;-0.40;99.90;;;;;;5055265;28;20020;-74
2021/03/02 05:34:46;;;;;;;85.25;15.07;;;-0.40;99.90;;;;;;5071747;28;20100;-75
2021/03/02 05:37:12;;;;;;;34.17;10.77;;;-0.40;99.90;;;;;;5072277;28;20132;-75
2021/03/02 05:39:37;;;;;;;15.23;9.25;;;-0.30;99.90;;;;;;5072248;28;20070;-75
2021/03/02 05:42:06;;;;;;;41.13;10.13;;;-0.30;99.90;;;;;;5072104;28;20032;-75
2021/03/02 05:44:31;;;;;;;145.32;14.50;;;-0.30;99.90;;;;;;5053045;28;20078;-75
2021/03/02 05:46:57;;;;;;;33.08;10.50;;;-0.30;99.90;;;;;;5052351;28;20108;-75
2021/03/02 05:49:23;;;;;;;16.55;10.05;;;-0.40;99.90;;;;;;5050924;28;20025;-75
2021/03/02 05:51:49;;;;;;;40.55;9.98;;;-0.50;99.90;;;;;;5051919;28;20111;-75
2021/03/02 05:54:16;;;;;;;16.13;8.52;;;-0.50;99.90;;;;;;5076283;28;20393;-75
2021/03/02 05:56:42;;;;;;;64.65;11.50;;;-0.50;99.90;;;;;;5052026;28;20485;-75
2021/03/02 05:59:08;;;;;;;49.17;9.77;;;-0.50;99.90;;;;;;5052043;28;20040;-75
2021/03/02 06:01:35;;;;;;;60.35;8.85;;;-0.60;99.90;;;;;;5051781;28;20028;-75
2021/03/02 06:04:00;;;;;;;28.38;9.27;;;-0.60;99.90;;;;;;5050899;28;20087;-75
2021/03/02 06:06:26;;;;;;;30.95;9.77;;;-0.60;99.90;;;;;;5067241;28;20049;-75
2021/03/02 06:08:52;;;;;;;38.22;11.00;;;-0.70;99.90;;;;;;5051942;28;20435;-74
2021/03/02 06:11:32;;;;;;;127.57;13.57;;;-0.70;99.90;;;;;;5051672;28;20422;-75
2021/03/02 06:14:21;;;;;;;56.50;11.18;;;-0.60;99.90;;;;;;5063973;28;20090;-75
2021/03/02 06:16:48;;;;;;;29.02;9.45;;;-0.70;99.90;;;;;;5071664;28;20481;-75
2021/03/02 06:19:14;;;;;;;140.07;12.55;;;-0.70;99.90;;;;;;5052978;28;20119;-74
2021/03/02 06:21:41;;;;;;;41.78;10.00;;;-0.70;99.90;;;;;;5070985;28;20092;-75
2021/03/02 06:24:07;;;;;;;62.63;11.90;;;-0.70;99.90;;;;;;5058639;28;20025;-74
2021/03/02 06:26:34;;;;;;;37.25;8.48;;;-0.60;99.90;;;;;;5057915;28;20516;-75
2021/03/02 06:29:10;;;;;;;37.28;10.45;;;-0.60;99.90;;;;;;5051204;28;20026;-74
2021/03/02 06:31:40;;;;;;;24.70;8.45;;;-0.60;99.90;;;;;;5051305;28;20025;-74
2021/03/02 06:34:10;;;;;;;205.55;14.60;;;-0.50;99.90;;;;;;5083258;28;20025;-75
2021/03/02 06:36:37;;;;;;;12.07;7.78;;;-0.60;99.90;;;;;;5074828;28;20028;-75
2021/03/02 06:39:23;;;;;;;12.35;7.68;;;-0.60;99.90;;;;;;5073334;28;20384;-75
2021/03/02 06:41:50;;;;;;;78.85;9.93;;;-0.50;99.90;;;;;;5070914;28;20064;-74
2021/03/02 06:44:16;;;;;;;129.40;12.93;;;-0.60;99.90;;;;;;5053426;28;20493;-75
2021/03/02 06:46:42;;;;;;;48.08;7.60;;;-0.50;99.90;;;;;;5051151;28;20104;-75
2021/03/02 06:49:09;;;;;;;123.63;12.57;;;-0.60;99.90;;;;;;5050952;28;20079;-75
2021/03/02 06:51:37;;;;;;;36.92;7.40;;;-0.70;99.90;;;;;;5065140;28;20021;-75
2021/03/02 06:54:15;;;;;;;31.08;7.03;;;-0.60;99.90;;;;;;5060218;28;20043;-75
2021/03/02 06:56:42;;;;;;;30.90;6.85;;;-0.60;99.90;;;;;;5068669;28;20408;-74
2021/03/02 06:59:15;;;;;;;64.85;9.70;;;-0.50;99.90;;;;;;5068592;28;20024;-75
2021/03/02 07:01:44;;;;;;;33.10;9.10;;;-0.50;99.90;;;;;;5068578;28;20025;-74
2021/03/02 07:04:16;;;;;;;35.20;8.10;;;-0.50;99.90;;;;;;5051155;28;20043;-74
2021/03/02 07:06:43;;;;;;;53.65;7.63;;;-0.40;99.90;;;;;;5065930;28;20025;-75
2021/03/02 07:09:10;;;;;;;171.43;13.43;;;-0.30;99.90;;;;;;5051107;28;20486;-75
2021/03/02 07:11:38;;;;;;;255.15;13.77;;;-0.40;99.90;;;;;;5051038;28;20053;-75
2021/03/02 07:14:09;;;;;;;59.92;8.43;;;-0.30;99.90;;;;;;5063000;28;20124;-75
2021/03/02 07:16:42;;;;;;;86.28;8.40;;;-0.30;99.90;;;;;;5070948;28;20056;-75
2021/03/02 07:19:10;;;;;;;20.70;7.45;;;-0.20;99.90;;;;;;5053523;28;20029;-74
2021/03/02 07:21:38;;;;;;;58.78;7.20;;;-0.20;99.90;;;;;;5050907;28;20100;-75
2021/03/02 07:24:05;;;;;;;10.40;6.55;;;-0.10;99.90;;;;;;5052448;28;20124;-75
2021/03/02 07:26:35;;;;;;;159.98;11.43;;;-0.10;99.90;;;;;;5054880;28;20514;-75
2021/03/02 07:29:02;;;;;;;42.60;6.32;;;-0.10;99.90;;;;;;5054399;28;20060;-75
2021/03/02 07:31:29;;;;;;;23.45;6.57;;;-0.10;99.90;;;;;;5054717;28;20020;-75
2021/03/02 07:33:55;;;;;;;124.93;8.70;;;0.00;99.90;;;;;;5069730;28;20028;-75
2021/03/02 07:36:21;;;;;;;41.83;6.00;;;-0.20;99.90;;;;;;5062976;28;20480;-75
2021/03/02 07:39:21;;;;;;;11.95;5.57;;;-0.20;99.90;;;;;;5056445;28;20481;-75
2021/03/02 07:41:47;;;;;;;14.82;5.50;;;-0.10;99.90;;;;;;5073238;28;20037;-75
2021/03/02 07:44:14;;;;;;;105.38;10.50;;;0.00;99.90;;;;;;5072578;28;20404;-74
2021/03/02 07:46:39;;;;;;;83.38;8.98;;;0.00;99.90;;;;;;5054268;28;20032;-75
2021/03/02 07:49:23;;;;;;;9.60;5.68;;;0.10;99.90;;;;;;5054862;28;20029;-75
2021/03/02 07:52:01;;;;;;;;;;;0.10;99.90;;;;;;5054715;28;20028;-75
2021/03/02 07:54:31;;;;;;;48.72;8.30;;;0.30;99.90;;;;;;5053627;28;19905;-75
2021/03/02 07:57:15;;;;;;;8.63;6.00;;;0.30;99.90;;;;;;5054347;28;20021;-75
2021/03/02 08:00:01;;;;;;;26.42;6.68;;;0.50;99.90;;;;;;5054491;28;20033;-75
2021/03/02 08:02:27;;;;;;;12.57;5.97;;;0.50;99.90;;;;;;5061755;28;20029;-75
2021/03/02 08:04:52;;;;;;;122.45;10.02;;;0.50;99.90;;;;;;5053151;28;20025;-75
2021/03/02 08:07:28;;;;;;;14.13;7.72;;;0.50;99.90;;;;;;5053870;28;20025;-75
2021/03/02 08:09:55;;;;;;;64.38;9.05;;;0.50;99.90;;;;;;5052823;28;20447;-75
2021/03/02 08:12:26;;;;;;;34.20;8.75;;;0.60;99.90;;;;;;5053798;28;20104;-75
2021/03/02 08:14:52;;;;;;;76.55;8.82;;;0.60;99.90;;;;;;5068437;28;20128;-75
2021/03/02 08:17:19;;;;;;;42.55;8.15;;;0.80;99.90;;;;;;5055964;28;20033;-75
2021/03/02 08:19:49;;;;;;;33.92;7.53;;;0.90;99.90;;;;;;5063447;28;20099;-75
2021/03/02 08:22:18;;;;;;;17.23;7.25;;;0.90;99.90;;;;;;5070155;28;20111;-75
2021/03/02 08:24:54;;;;;;;82.50;9.45;;;1.10;99.90;;;;;;5072845;28;20083;-75
2021/03/02 08:27:50;;;;;;;32.95;8.02;;;1.10;99.90;;;;;;5067769;28;20021;-75
2021/03/02 08:30:23;;;;;;;24.67;7.18;;;1.30;99.90;;;;;;5085622;28;20484;-75
2021/03/02 08:32:50;;;;;;;70.55;8.57;;;1.30;99.90;;;;;;5079612;28;20384;-75
2021/03/02 08:35:19;;;;;;;11.35;7.53;;;1.40;99.90;;;;;;5092600;28;20545;-75
2021/03/02 08:37:52;;;;;;;15.18;8.60;;;1.60;99.90;;;;;;5074403;28;20120;-75
2021/03/02 08:40:24;;;;;;;20.83;9.30;;;1.90;99.90;;;;;;5084695;28;20033;-75
2021/03/02 08:43:03;;;;;;;26.15;9.63;;;2.10;99.90;;;;;;5073772;28;20024;-75
2021/03/02 08:45:31;;;;;;;13.90;9.27;;;2.30;99.90;;;;;;5090633;28;20089;-75
2021/03/02 08:48:18;;;;;;;17.38;8.85;;;2.50;99.90;;;;;;5093408;28;20024;-75
2021/03/02 08:50:45;;;;;;;24.63;9.07;;;2.70;99.90;;;;;;5093542;28;20031;-75
2021/03/02 08:53:33;;;;;;;9.73;7.35;;;2.80;99.90;;;;;;5079469;28;20105;-75
2021/03/02 08:56:01;;;;;;;16.52;8.13;;;2.90;99.90;;;;;;5061434;28;20028;-75
2021/03/02 08:58:34;;;;;;;11.93;8.95;;;2.90;99.90;;;;;;5092310;28;20064;-75
2021/03/02 09:01:05;;;;;;;15.33;8.40;;;3.10;99.90;;;;;;5092057;28;20027;-75
2021/03/02 09:03:32;;;;;;;11.57;8.50;;;3.30;99.90;;;;;;5092080;28;20327;-75
2021/03/02 09:06:06;;;;;;;12.07;8.32;;;3.50;99.90;;;;;;5092506;28;20101;-75
2021/03/02 09:08:40;;;;;;;11.68;7.25;;;3.80;99.90;;;;;;5064948;28;20020;-75
2021/03/02 09:11:05;;;;;;;12.02;8.55;;;4.00;99.90;;;;;;5053200;28;20025;-75
2021/03/02 09:13:36;;;;;;;8.25;6.60;;;4.20;99.90;;;;;;5052834;28;20029;-75
2021/03/02 09:16:01;;;;;;;12.48;7.95;;;4.40;99.90;;;;;;5052281;28;20095;-75
2021/03/02 09:18:27;;;;;;;10.35;7.30;;;4.50;99.90;;;;;;5052669;28;20087;-75
2021/03/02 09:20:56;;;;;;;9.27;6.30;;;4.50;99.90;;;;;;5070468;28;20024;-75
2021/03/02 09:23:22;;;;;;;10.77;6.90;;;4.60;99.90;;;;;;5071063;28;20027;-75
2021/03/02 09:25:51;;;;;;;11.05;7.20;;;4.80;99.90;;;;;;5071710;28;20028;-74
2021/03/02 09:28:19;;;;;;;7.90;6.20;;;4.80;99.90;;;;;;5071715;28;20115;-75
2021/03/02 09:30:45;;;;;;;7.63;6.32;;;5.00;99.90;;;;;;5070953;28;20074;-75
2021/03/02 09:33:14;;;;;;;8.00;6.13;;;5.20;99.90;;;;;;5059754;28;20052;-75
2021/03/02 09:35:42;;;;;;;11.02;6.93;;;5.50;99.90;;;;;;5051616;28;20059;-75
2021/03/02 09:38:27;;;;;;;8.73;5.55;;;5.70;99.90;;;;;;5052234;28;20509;-75
2021/03/02 09:40:52;;;;;;;6.43;5.18;;;6.10;99.90;;;;;;5052133;28;20409;-75
2021/03/02 09:43:19;;;;;;;6.95;5.40;;;6.20;99.90;;;;;;5052230;28;20029;-75
2021/03/02 09:45:53;;;;;;;5.57;4.72;;;6.40;99.90;;;;;;5052079;28;20086;-75
2021/03/02 09:48:19;;;;;;;7.53;5.18;;;6.60;99.90;;;;;;5051159;28;20025;-75
2021/03/02 09:50:45;;;;;;;7.25;4.53;;;6.70;99.90;;;;;;5050739;28;20447;-75
2021/03/02 09:53:17;;;;;;;6.32;5.15;;;6.80;99.90;;;;;;5051993;28;20043;-75
2021/03/02 09:55:47;;;;;;;6.60;5.17;;;6.70;99.90;;;;;;5051487;28;20021;-75
2021/03/02 09:58:18;;;;;;;5.28;4.70;;;6.60;99.90;;;;;;5054499;28;20093;-75
2021/03/02 10:00:49;;;;;;;12.27;5.82;;;6.70;99.90;;;;;;5083309;28;20029;-75
2021/03/02 10:03:17;;;;;;;5.60;4.90;;;6.80;99.90;;;;;;5071587;28;20603;-75
2021/03/02 10:05:46;;;;;;;5.57;4.82;;;6.70;99.90;;;;;;5070732;28;20025;-74
2021/03/02 10:08:38;;;;;;;5.95;5.00;;;6.90;99.90;;;;;;5071784;28;20051;-74
2021/03/02 10:11:13;;;;;;;7.70;6.20;;;7.00;99.90;;;;;;5069039;28;20044;-75
2021/03/02 10:13:41;;;;;;;6.70;4.93;;;7.40;99.90;;;;;;5069652;28;20119;-75
2021/03/02 10:16:16;;;;;;;5.88;4.90;;;7.70;99.90;;;;;;5071087;28;20024;-75
2021/03/02 10:18:49;;;;;;;7.55;5.07;;;8.00;99.90;;;;;;5071496;28;20070;-75
2021/03/02 10:21:16;;;;;;;5.63;4.13;;;8.00;99.90;;;;;;5070561;28;20027;-75
2021/03/02 10:23:46;;;;;;;6.45;4.43;;;8.20;99.90;;;;;;5070940;28;20477;-75
2021/03/02 10:26:18;;;;;;;5.85;3.83;;;8.10;99.90;;;;;;5071136;28;20430;-75
2021/03/02 10:28:44;;;;;;;5.15;3.88;;;8.20;99.90;;;;;;5071557;28;20025;-75
2021/03/02 10:31:10;;;;;;;5.25;3.88;;;8.40;99.90;;;;;;5071413;28;20023;-75
2021/03/02 10:33:35;;;;;;;6.30;3.85;;;8.50;99.90;;;;;;5071331;28;20441;-75
2021/03/02 10:36:01;;;;;;;5.75;4.40;;;8.70;99.90;;;;;;5070905;28;20031;-75
2021/03/02 10:38:26;;;;;;;4.07;3.58;;;8.90;99.90;;;;;;5071278;28;20096;-75
2021/03/02 10:40:52;;;;;;;4.45;3.83;;;9.00;99.90;;;;;;5071117;28;20028;-75
2021/03/02 10:43:17;;;;;;;5.32;3.72;;;9.10;99.90;;;;;;5071342;28;20109;-75
2021/03/02 10:45:43;;;;;;;5.47;3.58;;;9.30;99.90;;;;;;5070359;28;20052;-75
2021/03/02 10:48:09;;;;;;;5.30;3.50;;;9.50;99.90;;;;;;5070001;28;20025;-75
2021/03/02 10:50:35;;;;;;;3.85;3.38;;;9.80;99.90;;;;;;5071212;28;20020;-75
2021/03/02 10:53:00;;;;;;;7.97;2.78;;;10.10;99.90;;;;;;5070349;28;20013;-75
2021/03/02 10:55:26;;;;;;;3.05;2.75;;;10.30;99.90;;;;;;5070443;28;20079;-78
2021/03/02 10:57:52;;;;;;;4.32;2.75;;;10.60;99.90;;;;;;5069999;28;20028;-76
2021/03/02 11:00:18;;;;;;;4.15;2.50;;;10.80;99.90;;;;;;5075259;28;20034;-77
2021/03/02 11:02:44;;;;;;;3.47;2.50;;;10.80;99.90;;;;;;5075255;28;20028;-77
2021/03/02 11:05:10;;;;;;;4.60;2.90;;;10.80;99.90;;;;;;5073075;28;20036;-77
2021/03/02 11:07:36;;;;;;;3.10;2.22;;;10.80;99.90;;;;;;5073861;28;20047;-77
2021/03/02 11:10:03;;;;;;;71.38;6.90;;;11.10;99.90;;;;;;5075186;28;20017;-77
2021/03/02 11:12:29;;;;;;;2.90;2.22;;;11.30;99.90;;;;;;5075093;28;20029;-77
2021/03/02 11:14:54;;;;;;;3.33;1.70;;;11.60;99.90;;;;;;5069994;28;20020;-77
2021/03/02 11:17:20;;;;;;;3.42;1.90;;;11.70;99.90;;;;;;5075033;28;20123;-77
2021/03/02 11:19:48;;;;;;;4.10;1.83;;;11.90;99.90;;;;;;5074869;28;20036;-77
2021/03/02 11:22:13;;;;;;;9.77;2.00;;;11.80;99.90;;;;;;5075041;28;20497;-77
2021/03/02 11:24:39;;;;;;;26.95;2.25;;;11.80;99.90;;;;;;5075070;28;20082;-76
2021/03/02 11:27:05;;;;;;;13.57;2.05;;;11.90;99.90;;;;;;5095138;28;20027;-75
2021/03/02 11:29:30;;;;;;;5.57;1.70;;;12.00;99.90;;;;;;5094919;28;20024;-75
2021/03/02 11:31:56;;;;;;;4.57;2.25;;;12.20;99.90;;;;;;5093980;28;20031;-74
2021/03/02 11:34:22;;;;;;;2.17;1.38;;;12.40;99.90;;;;;;5093965;28;20438;-75
2021/03/02 11:36:47;;;;;;;2.40;1.50;;;12.60;99.90;;;;;;5094710;28;20529;-75
2021/03/02 11:39:15;;;;;;;1.13;1.02;;;12.80;99.90;;;;;;5094559;28;20031;-75
2021/03/02 11:41:40;;;;;;;2.13;1.80;;;13.10;99.90;;;;;;5094573;28;20107;-75
2021/03/02 11:44:06;;;;;;;2.65;1.90;;;13.30;99.90;;;;;;5092996;28;20119;-75
2021/03/02 11:46:31;;;;;;;5.50;1.88;;;13.50;99.90;;;;;;5094582;28;20077;-75
2021/03/02 11:48:57;;;;;;;5.55;1.70;;;13.40;99.90;;;;;;5093301;28;20573;-75
2021/03/02 11:51:22;;;;;;;2.05;1.33;;;13.30;99.90;;;;;;5093380;28;20480;-75
2021/03/02 11:53:48;;;;;;;1.95;1.65;;;13.50;99.90;;;;;;5080912;28;20111;-75
2021/03/02 11:56:13;;;;;;;2.90;1.33;;;13.60;99.90;;;;;;5074068;28;20032;-75
2021/03/02 11:58:39;;;;;;;12.35;1.80;;;13.90;99.90;;;;;;5072057;28;20036;-75
2021/03/02 12:01:05;;;;;;;3.38;1.80;;;14.10;99.90;;;;;;5068044;28;20036;-75
2021/03/02 12:03:30;;;;;;;1.95;1.33;;;14.40;99.90;;;;;;5053974;28;20135;-75
2021/03/02 12:05:56;;;;;;;3.65;1.40;;;14.50;99.90;;;;;;5053113;28;20025;-75
2021/03/02 12:08:21;;;;;;;1.65;1.38;;;14.30;99.90;;;;;;5053935;28;20033;-77
2021/03/02 12:10:47;;;;;;;3.70;1.67;;;14.50;99.90;;;;;;5052646;28;20061;-76
2021/03/02 12:13:13;;;;;;;2.00;1.60;;;14.70;99.90;;;;;;5058075;28;20146;-76
2021/03/02 12:15:38;;;;;;;3.25;1.60;;;14.90;99.90;;;;;;5073134;28;20119;-76
2021/03/02 12:18:04;;;;;;;1.88;1.45;;;15.00;99.90;;;;;;5066530;28;20037;-76
2021/03/02 12:20:30;;;;;;;2.58;1.70;;;15.40;99.90;;;;;;5053558;28;20496;-76
2021/03/02 12:22:56;;;;;;;2.17;1.17;;;15.40;99.90;;;;;;5072049;28;20075;-76
2021/03/02 12:25:21;;;;;;;2.50;1.65;;;15.20;99.90;;;;;;5072703;28;20115;-76
2021/03/02 12:27:47;;;;;;;2.47;1.50;;;15.40;99.90;;;;;;5073462;28;20031;-76
2021/03/02 12:30:13;;;;;;;1.35;1.25;;;15.60;99.90;;;;;;5072738;28;20541;-76
2021/03/02 12:32:38;;;;;;;3.28;1.50;;;15.70;99.90;;;;;;5073403;28;20029;-75
2021/03/02 12:35:07;;;;;;;3.33;1.63;;;15.80;99.90;;;;;;5065312;28;20135;-75
2021/03/02 12:37:33;;;;;;;2.85;1.60;;;15.70;99.90;;;;;;5053038;28;20491;-76
2021/03/02 12:39:59;;;;;;;2.58;1.60;;;15.50;99.90;;;;;;5053359;28;20118;-75
2021/03/02 12:42:25;;;;;;;2.83;1.35;;;15.60;99.90;;;;;;5053050;28;20064;-75
2021/03/02 12:44:51;;;;;;;2.92;2.03;;;15.60;99.90;;;;;;5052375;28;20033;-75